Time;durP1;ratioP1;P1;durP2;ratioP2;P2;SDS_P1;SDS_P2;PMS_P1;PMS_P2;Temp;Humidity;BMP_temperature;BMP_pressure;BME280_temperature;BME280_humidity;BME280_pressure;Samples;Min_cycle;Max_cycle;Signal;HPM_P1;HPM_P2
2022/06/23 00:00:02;;;;;;;1.4;0.8;;;;;;;20.3;100.0;100930;;;;
2022/06/23 00:01:01;;;;;;;1.4;0.8;;;;;;;20.1;100.0;100930;;;;
2022/06/23 00:02:10;;;;;;;1.4;0.8;;;;;;;20.1;100.0;100930;;;;
2022/06/23 00:03:01;;;;;;;1.4;0.8;;;;;;;20.2;100.0;100920;;;;
2022/06/23 00:04:00;;;;;;;1.4;0.8;;;;;;;20.2;100.0;100920;;;;
2022/06/23 00:05:03;;;;;;;1.4;0.8;;;;;;;20.2;100.0;100920;;;;
2022/06/23 00:06:01;;;;;;;1.4;0.8;;;;;;;20.2;100.0;100920;;;;
2022/06/23 00:07:04;;;;;;;1.4;0.8;;;;;;;20.0;100.0;100920;;;;
2022/06/23 00:08:00;;;;;;;1.4;0.8;;;;;;;20.0;100.0;100920;;;;
2022/06/23 00:09:00;;;;;;;1.4;0.8;;;;;;;19.8;100.0;100920;;;;
2022/06/23 00:10:01;;;;;;;1.4;0.8;;;;;;;19.8;100.0;100920;;;;
2022/06/23 00:11:00;;;;;;;1.4;0.8;;;;;;;19.9;100.0;100910;;;;
2022/06/23 00:12:10;;;;;;;1.4;0.8;;;;;;;19.9;100.0;100910;;;;
2022/06/23 00:13:00;;;;;;;1.4;0.8;;;;;;;19.7;100.0;100910;;;;
2022/06/23 00:14:10;;;;;;;1.4;0.8;;;;;;;19.7;100.0;100910;;;;
2022/06/23 00:15:01;;;;;;;1.4;0.8;;;;;;;19.7;100.0;100910;;;;
2022/06/23 00:16:00;;;;;;;1.4;0.8;;;;;;;19.7;100.0;100910;;;;
2022/06/23 00:17:10;;;;;;;3.3;1.2;;;;;;;19.7;100.0;100910;;;;
2022/06/23 00:18:02;;;;;;;3.3;1.2;;;;;;;19.7;100.0;100910;;;;
2022/06/23 00:19:00;;;;;;;3.3;1.2;;;;;;;19.7;100.0;100910;;;;
2022/06/23 00:20:05;;;;;;;3.3;1.2;;;;;;;19.7;100.0;100910;;;;
2022/06/23 00:21:10;;;;;;;3.3;1.2;;;;;;;19.6;100.0;100900;;;;
2022/06/23 00:22:00;;;;;;;3.3;1.2;;;;;;;19.6;100.0;100900;;;;
2022/06/23 00:23:10;;;;;;;3.3;1.2;;;;;;;19.7;100.0;100900;;;;
2022/06/23 00:24:02;;;;;;;3.3;1.2;;;;;;;19.7;100.0;100900;;;;
2022/06/23 00:25:01;;;;;;;3.3;1.2;;;;;;;19.7;100.0;100900;;;;
2022/06/23 00:26:03;;;;;;;3.3;1.2;;;;;;;19.7;100.0;100900;;;;
2022/06/23 00:27:00;;;;;;;3.3;1.2;;;;;;;19.8;100.0;100910;;;;
2022/06/23 00:28:01;;;;;;;3.3;1.2;;;;;;;19.8;100.0;100910;;;;
2022/06/23 00:29:04;;;;;;;3.3;1.2;;;;;;;19.9;100.0;100910;;;;
2022/06/23 00:30:03;;;;;;;3.3;1.2;;;;;;;19.9;100.0;100910;;;;
2022/06/23 00:31:01;;;;;;;3.3;1.2;;;;;;;19.9;100.0;100910;;;;
2022/06/23 00:32:04;;;;;;;3.3;1.2;;;;;;;19.9;100.0;100910;;;;
2022/06/23 00:33:10;;;;;;;3.3;1.2;;;;;;;19.8;100.0;100910;;;;
2022/06/23 00:34:01;;;;;;;3.3;1.2;;;;;;;19.8;100.0;100910;;;;
2022/06/23 00:35:01;;;;;;;3.3;1.2;;;;;;;19.6;100.0;100910;;;;
2022/06/23 00:36:00;;;;;;;3.3;1.2;;;;;;;19.6;100.0;100910;;;;
2022/06/23 00:37:02;;;;;;;0.3;0.3;;;;;;;19.6;100.0;100900;;;;
2022/06/23 00:38:00;;;;;;;0.3;0.3;;;;;;;19.6;100.0;100900;;;;
2022/06/23 00:39:00;;;;;;;0.3;0.3;;;;;;;19.8;100.0;100900;;;;
2022/06/23 00:40:03;;;;;;;0.3;0.3;;;;;;;19.8;100.0;100900;;;;
2022/06/23 00:41:00;;;;;;;0.3;0.3;;;;;;;19.7;100.0;100900;;;;
2022/06/23 00:42:00;;;;;;;0.3;0.3;;;;;;;19.7;100.0;100900;;;;
2022/06/23 00:43:02;;;;;;;0.3;0.3;;;;;;;19.7;100.0;100900;;;;
2022/06/23 00:44:03;;;;;;;0.3;0.3;;;;;;;19.7;100.0;100900;;;;
2022/06/23 00:45:07;;;;;;;0.3;0.3;;;;;;;19.8;100.0;100900;;;;
2022/06/23 00:46:09;;;;;;;0.3;0.3;;;;;;;19.8;100.0;100900;;;;
2022/06/23 00:47:03;;;;;;;0.3;0.3;;;;;;;19.7;100.0;100900;;;;
2022/06/23 00:48:01;;;;;;;0.3;0.3;;;;;;;19.7;100.0;100900;;;;
2022/06/23 00:49:01;;;;;;;0.3;0.3;;;;;;;19.7;100.0;100900;;;;
2022/06/23 00:50:03;;;;;;;0.3;0.3;;;;;;;19.7;100.0;100900;;;;
2022/06/23 00:51:10;;;;;;;0.3;0.3;;;;;;;19.6;100.0;100900;;;;
2022/06/23 00:52:02;;;;;;;0.3;0.3;;;;;;;19.6;100.0;100900;;;;
2022/06/23 00:53:02;;;;;;;0.3;0.3;;;;;;;19.5;100.0;100900;;;;
2022/06/23 00:54:06;;;;;;;0.3;0.3;;;;;;;19.5;100.0;100900;;;;
2022/06/23 00:55:02;;;;;;;0.3;0.3;;;;;;;19.5;100.0;100910;;;;
2022/06/23 00:56:10;;;;;;;0.3;0.3;;;;;;;19.5;100.0;100910;;;;
2022/06/23 00:57:03;;;;;;;0.4;0.4;;;;;;;19.4;100.0;100910;;;;
2022/06/23 00:58:04;;;;;;;0.4;0.4;;;;;;;19.4;100.0;100910;;;;
2022/06/23 00:59:07;;;;;;;0.4;0.4;;;;;;;19.5;100.0;100900;;;;
2022/06/23 01:00:01;;;;;;;0.4;0.4;;;;;;;19.5;100.0;100900;;;;
2022/06/23 01:01:06;;;;;;;0.4;0.4;;;;;;;19.5;100.0;100900;;;;
2022/06/23 01:02:00;;;;;;;0.4;0.4;;;;;;;19.5;100.0;100900;;;;
2022/06/23 01:03:05;;;;;;;0.4;0.4;;;;;;;19.4;100.0;100900;;;;
2022/06/23 01:04:03;;;;;;;0.4;0.4;;;;;;;19.4;100.0;100900;;;;
2022/06/23 01:05:05;;;;;;;0.4;0.4;;;;;;;19.4;100.0;100910;;;;
2022/06/23 01:06:09;;;;;;;0.4;0.4;;;;;;;19.4;100.0;100910;;;;
2022/06/23 01:07:03;;;;;;;0.4;0.4;;;;;;;19.4;100.0;100900;;;;
2022/06/23 01:08:07;;;;;;;0.4;0.4;;;;;;;19.4;100.0;100900;;;;
2022/06/23 01:09:10;;;;;;;0.4;0.4;;;;;;;19.4;100.0;100900;;;;
2022/06/23 01:10:10;;;;;;;0.4;0.4;;;;;;;19.4;100.0;100900;;;;
2022/06/23 01:11:02;;;;;;;0.4;0.4;;;;;;;19.5;100.0;100890;;;;
2022/06/23 01:12:03;;;;;;;0.4;0.4;;;;;;;19.5;100.0;100890;;;;
2022/06/23 01:13:05;;;;;;;0.4;0.4;;;;;;;19.3;100.0;100890;;;;
2022/06/23 01:14:00;;;;;;;0.4;0.4;;;;;;;19.3;100.0;100890;;;;
2022/06/23 01:15:03;;;;;;;0.4;0.4;;;;;;;19.3;100.0;100890;;;;
2022/06/23 01:16:10;;;;;;;0.4;0.4;;;;;;;19.3;100.0;100890;;;;
2022/06/23 01:17:04;;;;;;;0.3;0.3;;;;;;;19.2;100.0;100890;;;;
2022/06/23 01:18:04;;;;;;;0.3;0.3;;;;;;;19.2;100.0;100890;;;;
2022/06/23 01:19:10;;;;;;;0.3;0.3;;;;;;;19.3;100.0;100900;;;;
2022/06/23 01:20:03;;;;;;;0.3;0.3;;;;;;;19.3;100.0;100900;;;;
2022/06/23 01:21:02;;;;;;;0.3;0.3;;;;;;;19.1;100.0;100890;;;;
2022/06/23 01:22:02;;;;;;;0.3;0.3;;;;;;;19.1;100.0;100890;;;;
2022/06/23 01:23:09;;;;;;;0.3;0.3;;;;;;;19.3;100.0;100890;;;;
2022/06/23 01:24:03;;;;;;;0.3;0.3;;;;;;;19.3;100.0;100890;;;;
2022/06/23 01:25:03;;;;;;;0.3;0.3;;;;;;;19.3;100.0;100880;;;;
2022/06/23 01:26:00;;;;;;;0.3;0.3;;;;;;;19.3;100.0;100880;;;;
2022/06/23 01:27:10;;;;;;;0.3;0.3;;;;;;;19.2;100.0;100890;;;;
2022/06/23 01:28:00;;;;;;;0.3;0.3;;;;;;;19.2;100.0;100890;;;;
2022/06/23 01:29:07;;;;;;;0.3;0.3;;;;;;;19.1;100.0;100880;;;;
2022/06/23 01:30:05;;;;;;;0.3;0.3;;;;;;;19.1;100.0;100880;;;;
2022/06/23 01:31:10;;;;;;;0.3;0.3;;;;;;;19.1;100.0;100880;;;;
2022/06/23 01:32:10;;;;;;;0.3;0.3;;;;;;;19.1;100.0;100880;;;;
2022/06/23 01:33:10;;;;;;;0.3;0.3;;;;;;;19.1;100.0;100880;;;;
2022/06/23 01:34:07;;;;;;;0.3;0.3;;;;;;;19.1;100.0;100880;;;;
2022/06/23 01:35:06;;;;;;;0.3;0.3;;;;;;;19.0;100.0;100880;;;;
2022/06/23 01:36:04;;;;;;;0.3;0.3;;;;;;;19.0;100.0;100880;;;;
2022/06/23 01:37:03;;;;;;;0.4;0.4;;;;;;;19.0;100.0;100880;;;;
2022/06/23 01:38:02;;;;;;;0.4;0.4;;;;;;;19.0;100.0;100880;;;;
2022/06/23 01:39:02;;;;;;;0.4;0.4;;;;;;;18.9;100.0;100880;;;;
2022/06/23 01:40:09;;;;;;;0.4;0.4;;;;;;;18.9;100.0;100880;;;;
2022/06/23 01:41:05;;;;;;;0.4;0.4;;;;;;;18.7;100.0;100880;;;;
2022/06/23 01:42:03;;;;;;;0.4;0.4;;;;;;;18.7;100.0;100880;;;;
2022/06/23 01:43:03;;;;;;;0.4;0.4;;;;;;;18.8;100.0;100870;;;;
2022/06/23 01:44:07;;;;;;;0.4;0.4;;;;;;;18.8;100.0;100870;;;;
2022/06/23 01:45:06;;;;;;;0.4;0.4;;;;;;;18.8;100.0;100880;;;;
2022/06/23 01:46:10;;;;;;;0.4;0.4;;;;;;;18.8;100.0;100880;;;;
2022/06/23 01:47:02;;;;;;;0.4;0.4;;;;;;;18.8;100.0;100880;;;;
2022/06/23 01:48:07;;;;;;;0.4;0.4;;;;;;;18.8;100.0;100880;;;;
2022/06/23 01:49:03;;;;;;;0.4;0.4;;;;;;;18.9;100.0;100880;;;;
2022/06/23 01:50:10;;;;;;;0.4;0.4;;;;;;;18.9;100.0;100880;;;;
2022/06/23 01:51:00;;;;;;;0.4;0.4;;;;;;;19.0;100.0;100880;;;;
2022/06/23 01:52:07;;;;;;;0.4;0.4;;;;;;;19.0;100.0;100880;;;;
2022/06/23 01:53:04;;;;;;;0.4;0.4;;;;;;;19.0;100.0;100880;;;;
2022/06/23 01:54:13;;;;;;;0.4;0.4;;;;;;;19.0;100.0;100880;;;;
2022/06/23 01:55:04;;;;;;;0.4;0.4;;;;;;;18.9;100.0;100880;;;;
2022/06/23 01:56:01;;;;;;;0.4;0.4;;;;;;;18.9;100.0;100880;;;;
2022/06/23 01:57:00;;;;;;;0.2;0.2;;;;;;;18.9;100.0;100880;;;;
2022/06/23 01:58:07;;;;;;;0.2;0.2;;;;;;;18.9;100.0;100880;;;;
2022/06/23 01:59:10;;;;;;;0.2;0.2;;;;;;;19.0;100.0;100880;;;;
2022/06/23 02:00:01;;;;;;;0.2;0.2;;;;;;;19.0;100.0;100880;;;;
2022/06/23 02:01:02;;;;;;;0.2;0.2;;;;;;;18.8;100.0;100880;;;;
2022/06/23 02:02:00;;;;;;;0.2;0.2;;;;;;;18.8;100.0;100880;;;;
2022/06/23 02:03:10;;;;;;;0.2;0.2;;;;;;;18.7;100.0;100880;;;;
2022/06/23 02:04:07;;;;;;;0.2;0.2;;;;;;;18.7;100.0;100880;;;;
2022/06/23 02:05:11;;;;;;;0.2;0.2;;;;;;;18.7;100.0;100880;;;;
2022/06/23 02:06:05;;;;;;;0.2;0.2;;;;;;;18.7;100.0;100880;;;;
2022/06/23 02:07:08;;;;;;;0.2;0.2;;;;;;;18.9;100.0;100880;;;;
2022/06/23 02:08:06;;;;;;;0.2;0.2;;;;;;;18.9;100.0;100880;;;;
2022/06/23 02:09:10;;;;;;;0.2;0.2;;;;;;;18.8;100.0;100880;;;;
2022/06/23 02:10:03;;;;;;;0.2;0.2;;;;;;;18.8;100.0;100880;;;;
2022/06/23 02:11:10;;;;;;;0.2;0.2;;;;;;;18.9;100.0;100880;;;;
2022/06/23 02:12:00;;;;;;;0.2;0.2;;;;;;;18.9;100.0;100880;;;;
2022/06/23 02:13:04;;;;;;;0.2;0.2;;;;;;;18.9;100.0;100880;;;;
2022/06/23 02:14:06;;;;;;;0.2;0.2;;;;;;;18.9;100.0;100880;;;;
2022/06/23 02:15:06;;;;;;;0.2;0.2;;;;;;;18.6;100.0;100890;;;;
2022/06/23 02:16:02;;;;;;;0.2;0.2;;;;;;;18.6;100.0;100890;;;;
2022/06/23 02:17:09;;;;;;;1.0;0.7;;;;;;;18.7;100.0;100890;;;;
2022/06/23 02:18:10;;;;;;;1.0;0.7;;;;;;;18.7;100.0;100890;;;;
2022/06/23 02:19:07;;;;;;;1.0;0.7;;;;;;;18.6;100.0;100880;;;;
2022/06/23 02:20:10;;;;;;;1.0;0.7;;;;;;;18.6;100.0;100880;;;;
2022/06/23 02:21:05;;;;;;;1.0;0.7;;;;;;;18.6;100.0;100880;;;;
2022/06/23 02:22:10;;;;;;;1.0;0.7;;;;;;;18.6;100.0;100880;;;;
2022/06/23 02:23:07;;;;;;;1.0;0.7;;;;;;;18.6;100.0;100890;;;;
2022/06/23 02:24:10;;;;;;;1.0;0.7;;;;;;;18.6;100.0;100890;;;;
2022/06/23 02:25:03;;;;;;;1.0;0.7;;;;;;;18.5;100.0;100880;;;;
2022/06/23 02:26:04;;;;;;;1.0;0.7;;;;;;;18.5;100.0;100880;;;;
2022/06/23 02:27:06;;;;;;;1.0;0.7;;;;;;;18.4;100.0;100890;;;;
2022/06/23 02:28:10;;;;;;;1.0;0.7;;;;;;;18.4;100.0;100890;;;;
2022/06/23 02:29:10;;;;;;;1.0;0.7;;;;;;;18.5;100.0;100890;;;;
2022/06/23 02:30:03;;;;;;;1.0;0.7;;;;;;;18.5;100.0;100890;;;;
2022/06/23 02:31:10;;;;;;;1.0;0.7;;;;;;;18.5;100.0;100890;;;;
2022/06/23 02:32:03;;;;;;;1.0;0.7;;;;;;;18.5;100.0;100890;;;;
2022/06/23 02:33:01;;;;;;;1.0;0.7;;;;;;;18.7;100.0;100880;;;;
2022/06/23 02:34:06;;;;;;;1.0;0.7;;;;;;;18.7;100.0;100880;;;;
2022/06/23 02:35:06;;;;;;;1.0;0.7;;;;;;;18.7;100.0;100890;;;;
2022/06/23 02:36:06;;;;;;;1.0;0.7;;;;;;;18.7;100.0;100890;;;;
2022/06/23 02:37:05;;;;;;;0.2;0.2;;;;;;;18.6;100.0;100880;;;;
2022/06/23 02:38:01;;;;;;;0.2;0.2;;;;;;;18.6;100.0;100880;;;;
2022/06/23 02:39:03;;;;;;;0.2;0.2;;;;;;;18.5;100.0;100880;;;;
2022/06/23 02:40:00;;;;;;;0.2;0.2;;;;;;;18.5;100.0;100880;;;;
2022/06/23 02:41:10;;;;;;;0.2;0.2;;;;;;;18.4;100.0;100890;;;;
2022/06/23 02:42:02;;;;;;;0.2;0.2;;;;;;;18.4;100.0;100890;;;;
2022/06/23 02:43:04;;;;;;;0.2;0.2;;;;;;;18.4;100.0;100880;;;;
2022/06/23 02:44:10;;;;;;;0.2;0.2;;;;;;;18.4;100.0;100880;;;;
2022/06/23 02:45:10;;;;;;;0.2;0.2;;;;;;;18.4;100.0;100890;;;;
2022/06/23 02:46:10;;;;;;;0.2;0.2;;;;;;;18.4;100.0;100890;;;;
2022/06/23 02:47:10;;;;;;;0.2;0.2;;;;;;;18.4;100.0;100880;;;;
2022/06/23 02:48:08;;;;;;;0.2;0.2;;;;;;;18.4;100.0;100880;;;;
2022/06/23 02:49:10;;;;;;;0.2;0.2;;;;;;;18.3;100.0;100880;;;;
2022/06/23 02:50:07;;;;;;;0.2;0.2;;;;;;;18.3;100.0;100880;;;;
2022/06/23 02:51:10;;;;;;;0.2;0.2;;;;;;;18.2;100.0;100870;;;;
2022/06/23 02:52:10;;;;;;;0.2;0.2;;;;;;;18.2;100.0;100870;;;;
2022/06/23 02:53:00;;;;;;;0.2;0.2;;;;;;;18.4;100.0;100870;;;;
2022/06/23 02:54:08;;;;;;;0.2;0.2;;;;;;;18.4;100.0;100870;;;;
2022/06/23 02:55:10;;;;;;;0.2;0.2;;;;;;;18.2;100.0;100870;;;;
2022/06/23 02:56:10;;;;;;;0.2;0.2;;;;;;;18.2;100.0;100870;;;;
2022/06/23 02:57:08;;;;;;;0.3;0.3;;;;;;;18.2;100.0;100870;;;;
2022/06/23 02:58:07;;;;;;;0.3;0.3;;;;;;;18.2;100.0;100870;;;;
2022/06/23 02:59:06;;;;;;;0.3;0.3;;;;;;;18.3;100.0;100870;;;;
2022/06/23 03:00:05;;;;;;;0.3;0.3;;;;;;;18.3;100.0;100870;;;;
2022/06/23 03:01:07;;;;;;;0.3;0.3;;;;;;;18.3;100.0;100870;;;;
2022/06/23 03:02:04;;;;;;;0.3;0.3;;;;;;;18.3;100.0;100870;;;;
2022/06/23 03:03:08;;;;;;;0.3;0.3;;;;;;;18.2;100.0;100870;;;;
2022/06/23 03:04:03;;;;;;;0.3;0.3;;;;;;;18.2;100.0;100870;;;;
2022/06/23 03:05:04;;;;;;;0.3;0.3;;;;;;;18.3;100.0;100870;;;;
2022/06/23 03:06:07;;;;;;;0.3;0.3;;;;;;;18.3;100.0;100870;;;;
2022/06/23 03:07:04;;;;;;;0.3;0.3;;;;;;;18.3;100.0;100860;;;;
2022/06/23 03:08:04;;;;;;;0.3;0.3;;;;;;;18.3;100.0;100860;;;;
2022/06/23 03:09:06;;;;;;;0.3;0.3;;;;;;;18.3;100.0;100860;;;;
2022/06/23 03:10:07;;;;;;;0.3;0.3;;;;;;;18.3;100.0;100860;;;;
2022/06/23 03:11:07;;;;;;;0.3;0.3;;;;;;;18.2;100.0;100860;;;;
2022/06/23 03:12:07;;;;;;;0.3;0.3;;;;;;;18.2;100.0;100860;;;;
2022/06/23 03:13:07;;;;;;;0.3;0.3;;;;;;;18.2;100.0;100860;;;;
2022/06/23 03:14:00;;;;;;;0.3;0.3;;;;;;;18.2;100.0;100860;;;;
2022/06/23 03:15:06;;;;;;;0.3;0.3;;;;;;;18.2;100.0;100860;;;;
2022/06/23 03:16:10;;;;;;;0.3;0.3;;;;;;;18.2;100.0;100860;;;;
2022/06/23 03:17:10;;;;;;;0.4;0.4;;;;;;;18.1;100.0;100860;;;;
2022/06/23 03:18:02;;;;;;;0.4;0.4;;;;;;;18.1;100.0;100860;;;;
2022/06/23 03:19:00;;;;;;;0.4;0.4;;;;;;;18.0;100.0;100850;;;;
2022/06/23 03:20:13;;;;;;;0.4;0.4;;;;;;;18.0;100.0;100850;;;;
2022/06/23 03:21:02;;;;;;;0.4;0.4;;;;;;;18.0;100.0;100850;;;;
2022/06/23 03:22:05;;;;;;;0.4;0.4;;;;;;;18.0;100.0;100850;;;;
2022/06/23 03:23:03;;;;;;;0.4;0.4;;;;;;;18.0;100.0;100850;;;;
2022/06/23 03:24:04;;;;;;;0.4;0.4;;;;;;;18.0;100.0;100850;;;;
2022/06/23 03:25:10;;;;;;;0.4;0.4;;;;;;;17.9;100.0;100850;;;;
2022/06/23 03:26:10;;;;;;;0.4;0.4;;;;;;;17.9;100.0;100850;;;;
2022/06/23 03:27:05;;;;;;;0.4;0.4;;;;;;;18.1;100.0;100850;;;;
2022/06/23 03:28:02;;;;;;;0.4;0.4;;;;;;;18.1;100.0;100850;;;;
2022/06/23 03:29:00;;;;;;;0.4;0.4;;;;;;;18.0;100.0;100850;;;;
2022/06/23 03:30:06;;;;;;;0.4;0.4;;;;;;;18.0;100.0;100850;;;;
2022/06/23 03:31:10;;;;;;;0.4;0.4;;;;;;;18.1;100.0;100850;;;;
2022/06/23 03:32:16;;;;;;;0.4;0.4;;;;;;;18.1;100.0;100850;;;;
2022/06/23 03:33:08;;;;;;;0.4;0.4;;;;;;;17.9;100.0;100850;;;;
2022/06/23 03:34:10;;;;;;;0.4;0.4;;;;;;;17.9;100.0;100850;;;;
2022/06/23 03:35:10;;;;;;;0.4;0.4;;;;;;;17.8;100.0;100850;;;;
2022/06/23 03:36:04;;;;;;;0.4;0.4;;;;;;;17.8;100.0;100850;;;;
2022/06/23 03:37:04;;;;;;;0.4;0.4;;;;;;;17.9;100.0;100850;;;;
2022/06/23 03:38:03;;;;;;;0.4;0.4;;;;;;;17.9;100.0;100850;;;;
2022/06/23 03:42:00;;;;;;;0.4;0.4;;;;;;;17.9;100.0;100840;;;;
2022/06/23 03:43:06;;;;;;;0.4;0.4;;;;;;;18.0;100.0;100850;;;;
2022/06/23 03:44:04;;;;;;;0.4;0.4;;;;;;;18.0;100.0;100850;;;;
2022/06/23 03:45:10;;;;;;;0.4;0.4;;;;;;;17.9;100.0;100840;;;;
2022/06/23 03:46:06;;;;;;;0.4;0.4;;;;;;;17.9;100.0;100840;;;;
2022/06/23 03:47:04;;;;;;;0.4;0.4;;;;;;;17.8;100.0;100850;;;;
2022/06/23 03:48:10;;;;;;;0.4;0.4;;;;;;;17.8;100.0;100850;;;;
2022/06/23 03:49:08;;;;;;;0.4;0.4;;;;;;;17.7;100.0;100840;;;;
2022/06/23 03:50:04;;;;;;;0.4;0.4;;;;;;;17.7;100.0;100840;;;;
2022/06/23 03:51:10;;;;;;;0.4;0.4;;;;;;;17.9;100.0;100850;;;;
2022/06/23 03:52:02;;;;;;;0.4;0.4;;;;;;;17.9;100.0;100850;;;;
2022/06/23 03:53:02;;;;;;;0.4;0.4;;;;;;;17.8;100.0;100850;;;;
2022/06/23 03:54:05;;;;;;;0.4;0.4;;;;;;;17.8;100.0;100850;;;;
2022/06/23 03:55:10;;;;;;;0.4;0.4;;;;;;;17.8;100.0;100850;;;;
2022/06/23 03:56:03;;;;;;;0.4;0.4;;;;;;;17.8;100.0;100850;;;;
2022/06/23 03:57:04;;;;;;;0.3;0.3;;;;;;;17.9;100.0;100840;;;;
2022/06/23 03:58:03;;;;;;;0.3;0.3;;;;;;;17.9;100.0;100840;;;;
2022/06/23 03:59:10;;;;;;;0.3;0.3;;;;;;;17.8;100.0;100850;;;;
2022/06/23 04:00:00;;;;;;;0.3;0.3;;;;;;;17.8;100.0;100850;;;;
2022/06/23 04:01:00;;;;;;;0.3;0.3;;;;;;;17.8;100.0;100850;;;;
2022/06/23 04:02:03;;;;;;;0.3;0.3;;;;;;;17.8;100.0;100850;;;;
2022/06/23 04:03:11;;;;;;;0.3;0.3;;;;;;;17.7;100.0;100850;;;;
2022/06/23 04:04:04;;;;;;;0.3;0.3;;;;;;;17.7;100.0;100850;;;;
2022/06/23 04:05:10;;;;;;;0.3;0.3;;;;;;;17.7;100.0;100850;;;;
2022/06/23 04:06:10;;;;;;;0.3;0.3;;;;;;;17.7;100.0;100850;;;;
2022/06/23 04:07:00;;;;;;;0.3;0.3;;;;;;;17.6;100.0;100850;;;;
2022/06/23 04:08:01;;;;;;;0.3;0.3;;;;;;;17.6;100.0;100850;;;;
2022/06/23 04:09:10;;;;;;;0.3;0.3;;;;;;;17.7;100.0;100850;;;;
2022/06/23 04:10:07;;;;;;;0.3;0.3;;;;;;;17.7;100.0;100850;;;;
2022/06/23 04:11:43;;;;;;;0.3;0.3;;;;;;;17.7;100.0;100850;;;;
2022/06/23 04:12:00;;;;;;;0.3;0.3;;;;;;;17.7;100.0;100850;;;;
2022/06/23 04:13:04;;;;;;;0.3;0.3;;;;;;;17.8;100.0;100860;;;;
2022/06/23 04:14:01;;;;;;;0.3;0.3;;;;;;;17.8;100.0;100860;;;;
2022/06/23 04:15:05;;;;;;;0.3;0.3;;;;;;;17.9;100.0;100860;;;;
2022/06/23 04:16:03;;;;;;;0.3;0.3;;;;;;;17.9;100.0;100860;;;;
2022/06/23 04:17:06;;;;;;;0.3;0.3;;;;;;;17.9;100.0;100860;;;;
2022/06/23 04:18:04;;;;;;;0.3;0.3;;;;;;;17.9;100.0;100860;;;;
2022/06/23 04:19:04;;;;;;;0.3;0.3;;;;;;;17.7;100.0;100860;;;;
2022/06/23 04:20:02;;;;;;;0.3;0.3;;;;;;;17.7;100.0;100860;;;;
2022/06/23 04:21:01;;;;;;;0.3;0.3;;;;;;;17.8;100.0;100860;;;;
2022/06/23 04:22:04;;;;;;;0.3;0.3;;;;;;;17.8;100.0;100860;;;;
2022/06/23 04:23:03;;;;;;;0.3;0.3;;;;;;;17.7;100.0;100840;;;;
2022/06/23 04:24:02;;;;;;;0.3;0.3;;;;;;;17.7;100.0;100840;;;;
2022/06/23 04:25:02;;;;;;;0.3;0.3;;;;;;;17.8;100.0;100840;;;;
2022/06/23 04:26:02;;;;;;;0.3;0.3;;;;;;;17.8;100.0;100840;;;;
2022/06/23 04:27:05;;;;;;;0.3;0.3;;;;;;;17.8;100.0;100850;;;;
2022/06/23 04:28:01;;;;;;;0.3;0.3;;;;;;;17.8;100.0;100850;;;;
2022/06/23 04:29:09;;;;;;;0.3;0.3;;;;;;;17.6;100.0;100860;;;;
2022/06/23 04:30:00;;;;;;;0.3;0.3;;;;;;;17.6;100.0;100860;;;;
2022/06/23 04:31:01;;;;;;;0.3;0.3;;;;;;;17.7;100.0;100860;;;;
2022/06/23 04:32:10;;;;;;;0.3;0.3;;;;;;;17.7;100.0;100860;;;;
2022/06/23 04:33:01;;;;;;;0.3;0.3;;;;;;;17.6;100.0;100870;;;;
2022/06/23 04:34:00;;;;;;;0.3;0.3;;;;;;;17.6;100.0;100870;;;;
2022/06/23 04:35:10;;;;;;;0.3;0.3;;;;;;;17.7;100.0;100860;;;;
2022/06/23 04:36:00;;;;;;;0.3;0.3;;;;;;;17.7;100.0;100860;;;;
2022/06/23 04:37:00;;;;;;;0.3;0.3;;;;;;;17.9;100.0;100850;;;;
2022/06/23 04:38:04;;;;;;;0.3;0.3;;;;;;;17.9;100.0;100850;;;;
2022/06/23 04:39:03;;;;;;;0.3;0.3;;;;;;;17.9;100.0;100860;;;;
2022/06/23 04:40:05;;;;;;;0.3;0.3;;;;;;;17.9;100.0;100860;;;;
2022/06/23 04:41:10;;;;;;;0.3;0.3;;;;;;;18.0;100.0;100860;;;;
2022/06/23 04:42:10;;;;;;;0.3;0.3;;;;;;;18.0;100.0;100860;;;;
2022/06/23 04:43:04;;;;;;;0.3;0.3;;;;;;;17.9;100.0;100860;;;;
2022/06/23 04:44:06;;;;;;;0.3;0.3;;;;;;;17.9;100.0;100860;;;;
2022/06/23 04:45:10;;;;;;;0.3;0.3;;;;;;;17.8;100.0;100860;;;;
2022/06/23 04:46:10;;;;;;;0.3;0.3;;;;;;;17.8;100.0;100860;;;;
2022/06/23 04:47:10;;;;;;;0.3;0.3;;;;;;;18.0;100.0;100860;;;;
2022/06/23 04:48:02;;;;;;;0.3;0.3;;;;;;;18.0;100.0;100860;;;;
2022/06/23 04:49:04;;;;;;;0.3;0.3;;;;;;;17.9;100.0;100860;;;;
2022/06/23 04:50:03;;;;;;;0.3;0.3;;;;;;;17.9;100.0;100860;;;;
2022/06/23 04:51:10;;;;;;;0.3;0.3;;;;;;;17.9;100.0;100850;;;;
2022/06/23 04:52:04;;;;;;;0.3;0.3;;;;;;;17.9;100.0;100850;;;;
2022/06/23 04:53:00;;;;;;;0.3;0.3;;;;;;;18.1;100.0;100860;;;;
2022/06/23 04:54:03;;;;;;;0.3;0.3;;;;;;;18.1;100.0;100860;;;;
2022/06/23 04:55:01;;;;;;;0.3;0.3;;;;;;;18.1;100.0;100860;;;;
2022/06/23 04:56:09;;;;;;;0.3;0.3;;;;;;;18.1;100.0;100860;;;;
2022/06/23 04:57:10;;;;;;;1.1;1.0;;;;;;;18.0;100.0;100850;;;;
2022/06/23 04:58:00;;;;;;;1.1;1.0;;;;;;;18.0;100.0;100850;;;;
2022/06/23 04:59:05;;;;;;;1.1;1.0;;;;;;;18.1;100.0;100860;;;;
2022/06/23 05:00:01;;;;;;;1.1;1.0;;;;;;;18.1;100.0;100860;;;;
2022/06/23 05:01:00;;;;;;;1.1;1.0;;;;;;;18.1;100.0;100860;;;;
2022/06/23 05:02:02;;;;;;;1.1;1.0;;;;;;;18.1;100.0;100860;;;;
2022/06/23 05:03:04;;;;;;;1.1;1.0;;;;;;;18.2;100.0;100860;;;;
2022/06/23 05:04:01;;;;;;;1.1;1.0;;;;;;;18.2;100.0;100860;;;;
2022/06/23 05:05:00;;;;;;;1.1;1.0;;;;;;;18.2;100.0;100860;;;;
2022/06/23 05:06:09;;;;;;;1.1;1.0;;;;;;;18.2;100.0;100860;;;;
2022/06/23 05:07:01;;;;;;;1.1;1.0;;;;;;;18.2;100.0;100860;;;;
2022/06/23 05:08:06;;;;;;;1.1;1.0;;;;;;;18.2;100.0;100860;;;;
2022/06/23 05:09:03;;;;;;;1.1;1.0;;;;;;;18.3;100.0;100860;;;;
2022/06/23 05:10:01;;;;;;;1.1;1.0;;;;;;;18.3;100.0;100860;;;;
2022/06/23 05:11:10;;;;;;;1.1;1.0;;;;;;;18.4;100.0;100860;;;;
2022/06/23 05:12:01;;;;;;;1.1;1.0;;;;;;;18.4;100.0;100860;;;;
2022/06/23 05:13:02;;;;;;;1.1;1.0;;;;;;;18.5;100.0;100870;;;;
2022/06/23 05:14:05;;;;;;;1.1;1.0;;;;;;;18.5;100.0;100870;;;;
2022/06/23 05:15:03;;;;;;;1.1;1.0;;;;;;;18.6;100.0;100860;;;;
2022/06/23 05:16:05;;;;;;;1.1;1.0;;;;;;;18.6;100.0;100860;;;;
2022/06/23 05:17:04;;;;;;;0.3;0.3;;;;;;;18.7;100.0;100870;;;;
2022/06/23 05:18:05;;;;;;;0.3;0.3;;;;;;;18.7;100.0;100870;;;;
2022/06/23 05:19:06;;;;;;;0.3;0.3;;;;;;;18.7;100.0;100860;;;;
2022/06/23 05:20:02;;;;;;;0.3;0.3;;;;;;;18.7;100.0;100860;;;;
2022/06/23 05:21:04;;;;;;;0.3;0.3;;;;;;;18.7;100.0;100860;;;;
2022/06/23 05:22:07;;;;;;;0.3;0.3;;;;;;;18.7;100.0;100860;;;;
2022/06/23 05:23:01;;;;;;;0.3;0.3;;;;;;;18.8;100.0;100860;;;;
2022/06/23 05:24:00;;;;;;;0.3;0.3;;;;;;;18.8;100.0;100860;;;;
2022/06/23 05:25:10;;;;;;;0.3;0.3;;;;;;;18.8;100.0;100860;;;;
2022/06/23 05:26:04;;;;;;;0.3;0.3;;;;;;;18.8;100.0;100860;;;;
2022/06/23 05:27:02;;;;;;;0.3;0.3;;;;;;;18.9;100.0;100860;;;;
2022/06/23 05:28:02;;;;;;;0.3;0.3;;;;;;;18.9;100.0;100860;;;;
2022/06/23 05:29:04;;;;;;;0.3;0.3;;;;;;;19.0;100.0;100860;;;;
2022/06/23 05:30:07;;;;;;;0.3;0.3;;;;;;;19.0;100.0;100860;;;;
2022/06/23 05:31:02;;;;;;;0.3;0.3;;;;;;;19.0;100.0;100860;;;;
2022/06/23 05:32:03;;;;;;;0.3;0.3;;;;;;;19.0;100.0;100860;;;;
2022/06/23 05:33:04;;;;;;;0.3;0.3;;;;;;;19.1;100.0;100870;;;;
2022/06/23 05:34:04;;;;;;;0.3;0.3;;;;;;;19.1;100.0;100870;;;;
2022/06/23 05:35:00;;;;;;;0.3;0.3;;;;;;;19.2;100.0;100860;;;;
2022/06/23 05:36:05;;;;;;;0.3;0.3;;;;;;;19.2;100.0;100860;;;;
2022/06/23 05:37:10;;;;;;;0.3;0.3;;;;;;;19.1;100.0;100860;;;;
2022/06/23 05:38:15;;;;;;;0.3;0.3;;;;;;;19.1;100.0;100860;;;;
2022/06/23 05:39:10;;;;;;;0.3;0.3;;;;;;;19.1;100.0;100860;;;;
2022/06/23 05:40:10;;;;;;;0.3;0.3;;;;;;;19.1;100.0;100860;;;;
2022/06/23 05:41:03;;;;;;;0.3;0.3;;;;;;;19.3;100.0;100860;;;;
2022/06/23 05:42:07;;;;;;;0.3;0.3;;;;;;;19.3;100.0;100860;;;;
2022/06/23 05:43:01;;;;;;;0.3;0.3;;;;;;;19.5;100.0;100860;;;;
2022/06/23 05:44:03;;;;;;;0.3;0.3;;;;;;;19.5;100.0;100860;;;;
2022/06/23 05:45:02;;;;;;;0.3;0.3;;;;;;;19.6;100.0;100860;;;;
2022/06/23 05:46:01;;;;;;;0.3;0.3;;;;;;;19.6;100.0;100860;;;;
2022/06/23 05:47:01;;;;;;;0.3;0.3;;;;;;;19.7;100.0;100860;;;;
2022/06/23 05:48:03;;;;;;;0.3;0.3;;;;;;;19.7;100.0;100860;;;;
2022/06/23 05:49:04;;;;;;;0.3;0.3;;;;;;;19.8;100.0;100860;;;;
2022/06/23 05:50:04;;;;;;;0.3;0.3;;;;;;;19.8;100.0;100860;;;;
2022/06/23 05:51:10;;;;;;;0.3;0.3;;;;;;;19.9;100.0;100850;;;;
2022/06/23 05:52:04;;;;;;;0.3;0.3;;;;;;;19.9;100.0;100850;;;;
2022/06/23 05:53:03;;;;;;;0.3;0.3;;;;;;;19.8;100.0;100850;;;;
2022/06/23 05:54:02;;;;;;;0.3;0.3;;;;;;;19.8;100.0;100850;;;;
2022/06/23 05:55:03;;;;;;;0.3;0.3;;;;;;;19.9;100.0;100850;;;;
2022/06/23 05:56:00;;;;;;;0.3;0.3;;;;;;;19.9;100.0;100850;;;;
2022/06/23 05:57:09;;;;;;;0.2;0.2;;;;;;;20.0;100.0;100850;;;;
2022/06/23 05:58:01;;;;;;;0.2;0.2;;;;;;;20.0;100.0;100850;;;;
2022/06/23 05:59:00;;;;;;;0.2;0.2;;;;;;;20.3;100.0;100860;;;;
2022/06/23 06:00:10;;;;;;;0.2;0.2;;;;;;;20.3;100.0;100860;;;;
2022/06/23 06:01:04;;;;;;;0.2;0.2;;;;;;;20.3;100.0;100860;;;;
2022/06/23 06:02:04;;;;;;;0.2;0.2;;;;;;;20.3;100.0;100860;;;;
2022/06/23 06:03:06;;;;;;;0.2;0.2;;;;;;;20.4;100.0;100850;;;;
2022/06/23 06:04:00;;;;;;;0.2;0.2;;;;;;;20.4;100.0;100850;;;;
2022/06/23 06:05:00;;;;;;;0.2;0.2;;;;;;;20.5;100.0;100850;;;;
2022/06/23 06:06:01;;;;;;;0.2;0.2;;;;;;;20.5;100.0;100850;;;;
2022/06/23 06:07:00;;;;;;;0.2;0.2;;;;;;;20.6;100.0;100850;;;;
2022/06/23 06:08:01;;;;;;;0.2;0.2;;;;;;;20.6;100.0;100850;;;;
2022/06/23 06:10:01;;;;;;;0.2;0.2;;;;;;;20.6;100.0;100850;;;;
2022/06/23 06:11:01;;;;;;;0.2;0.2;;;;;;;20.7;100.0;100860;;;;
2022/06/23 06:12:01;;;;;;;0.2;0.2;;;;;;;20.7;100.0;100860;;;;
2022/06/23 06:13:02;;;;;;;0.2;0.2;;;;;;;20.9;100.0;100860;;;;
2022/06/23 06:14:01;;;;;;;0.2;0.2;;;;;;;20.9;100.0;100860;;;;
2022/06/23 06:15:04;;;;;;;0.2;0.2;;;;;;;20.8;100.0;100850;;;;
2022/06/23 06:16:00;;;;;;;0.2;0.2;;;;;;;20.8;100.0;100850;;;;
2022/06/23 06:17:01;;;;;;;0.5;0.5;;;;;;;21.1;100.0;100860;;;;
2022/06/23 06:18:10;;;;;;;0.5;0.5;;;;;;;21.1;100.0;100860;;;;
2022/06/23 06:19:00;;;;;;;0.5;0.5;;;;;;;21.2;100.0;100860;;;;
2022/06/23 06:20:04;;;;;;;0.5;0.5;;;;;;;21.2;100.0;100860;;;;
2022/06/23 06:21:01;;;;;;;0.5;0.5;;;;;;;21.0;100.0;100850;;;;
2022/06/23 06:22:10;;;;;;;0.5;0.5;;;;;;;21.0;100.0;100850;;;;
2022/06/23 06:23:05;;;;;;;0.5;0.5;;;;;;;21.0;100.0;100850;;;;
2022/06/23 06:24:03;;;;;;;0.5;0.5;;;;;;;21.0;100.0;100850;;;;
2022/06/23 06:25:01;;;;;;;0.5;0.5;;;;;;;20.9;100.0;100850;;;;
2022/06/23 06:26:00;;;;;;;0.5;0.5;;;;;;;20.9;100.0;100850;;;;